Time;durP1;ratioP1;P1;durP2;ratioP2;P2;SDS_P1;SDS_P2;PMS_P1;PMS_P2;Temp;Humidity;BMP_temperature;BMP_pressure;BME280_temperature;BME280_humidity;BME280_pressure;Samples;Min_cycle;Max_cycle;Signal;HPM_P1;HPM_P2
2022/02/02 00:00:56;;;;;;;47.93;18.60;;;1.50;99.90;;;;;;5032389;28;20238;-78
2022/02/02 00:03:24;;;;;;;34.03;12.27;;;-0.30;99.90;;;;;;5014610;28;20630;-78
2022/02/02 00:08:34;;;;;;;78.23;24.73;;;-0.30;99.90;;;;;;5032390;28;20640;-78
2022/02/02 00:21:07;;;;;;;29.90;11.73;;;0.70;99.90;;;;;;5035440;28;20230;-78
2022/02/02 00:23:42;;;;;;;36.67;14.80;;;1.20;99.90;;;;;;5034248;28;20212;-77
2022/02/02 00:26:13;;;;;;;53.17;18.53;;;-0.40;99.90;;;;;;5034327;28;20634;-78
2022/02/02 00:28:43;;;;;;;134.03;40.00;;;0.10;99.90;;;;;;5033649;28;20231;-78
2022/02/02 00:31:15;;;;;;;115.73;35.30;;;;;;;;;;5034450;28;20183;-78
2022/02/02 00:33:46;;;;;;;70.97;22.83;;;-0.50;99.90;;;;;;5035311;28;20346;-78
2022/02/02 00:36:17;;;;;;;54.93;18.87;;;-0.60;99.90;;;;;;5034477;28;20200;-77
2022/02/02 00:38:43;;;;;;;105.63;33.77;;;-0.40;99.90;;;;;;5033771;28;20185;-77
2022/02/02 00:41:09;;;;;;;71.23;25.60;;;1.10;99.90;;;;;;5034197;28;20192;-77
2022/02/02 00:43:35;;;;;;;28.70;12.27;;;1.30;99.90;;;;;;5035056;28;20188;-77
2022/02/02 00:46:00;;;;;;;71.43;22.63;;;1.60;99.90;;;;;;5035489;28;20179;-77
2022/02/02 00:48:28;;;;;;;39.53;14.60;;;0.80;99.90;;;;;;5034008;28;20190;-78
2022/02/02 00:50:54;;;;;;;70.67;21.03;;;-0.40;99.90;;;;;;5017243;28;20250;-77
2022/02/02 00:53:21;;;;;;;31.57;12.87;;;-0.40;99.90;;;;;;5033753;28;20275;-77
2022/02/02 00:55:46;;;;;;;38.70;14.77;;;0.20;99.90;;;;;;5033682;28;20261;-77
2022/02/02 00:58:12;;;;;;;46.50;16.33;;;;;;;;;;5034862;28;20570;-77
2022/02/02 01:00:38;;;;;;;44.40;16.37;;;-0.40;99.90;;;;;;5034711;28;20205;-77
2022/02/02 01:03:04;;;;;;;25.23;11.73;;;-0.30;99.90;;;;;;5033782;28;20651;-77
2022/02/02 01:05:30;;;;;;;27.47;11.57;;;1.00;99.90;;;;;;5033671;28;20181;-77
2022/02/02 01:10:29;;;;;;;31.47;14.57;;;1.40;99.90;;;;;;5034589;28;20546;-77
2022/02/02 01:18:32;;;;;;;13.20;7.00;;;-0.20;99.90;;;;;;5033820;28;20239;-77
2022/02/02 01:21:03;;;;;;;16.03;7.67;;;1.10;99.90;;;;;;5033113;28;20195;-77
2022/02/02 01:28:42;;;;;;;13.17;6.13;;;0.50;99.90;;;;;;5034029;28;20238;-76
2022/02/02 01:31:12;;;;;;;11.87;6.30;;;-0.20;99.90;;;;;;5034262;28;20183;-77
2022/02/02 01:33:39;;;;;;;17.13;7.97;;;1.00;99.90;;;;;;5032892;28;20187;-77
2022/02/02 01:36:06;;;;;;;13.30;6.67;;;-0.20;99.90;;;;;;5034327;28;20649;-76
2022/02/02 01:38:34;;;;;;;13.63;6.30;;;-0.10;99.90;;;;;;5034139;28;20196;-77
2022/02/02 01:41:11;;;;;;;20.03;10.43;;;-0.20;99.90;;;;;;5025869;28;20687;-76
2022/02/02 01:43:47;;;;;;;13.03;6.73;;;;;;;;;;5033907;28;20181;-79
2022/02/02 01:46:16;;;;;;;11.53;6.20;;;-0.10;99.90;;;;;;5034314;28;20172;-78
2022/02/02 01:48:55;;;;;;;16.40;8.13;;;0.50;99.90;;;;;;5033791;28;20201;-78
2022/02/02 01:56:23;;;;;;;14.67;7.80;;;0.70;99.90;;;;;;5033794;28;20265;-78
2022/02/02 01:59:01;;;;;;;22.23;9.93;;;0.60;99.90;;;;;;5033829;28;20262;-77
2022/02/02 02:01:31;;;;;;;13.67;6.47;;;1.40;99.90;;;;;;5033971;28;20174;-77
2022/02/02 02:03:58;;;;;;;9.87;5.87;;;1.20;99.90;;;;;;5033297;28;20172;-77
2022/02/02 02:06:24;;;;;;;14.77;6.73;;;0.90;99.90;;;;;;5033570;28;20233;-77
2022/02/02 02:08:50;;;;;;;12.17;5.83;;;;;;;;;;5032057;28;20180;-77
2022/02/02 02:11:19;;;;;;;11.97;6.23;;;0.00;99.90;;;;;;5032661;28;20252;-77
2022/02/02 02:16:17;;;;;;;14.77;6.83;;;1.20;99.90;;;;;;5032511;28;20295;-77
2022/02/02 02:18:43;;;;;;;10.90;6.60;;;0.10;99.90;;;;;;5032255;28;20175;-78
2022/02/02 02:21:12;;;;;;;10.00;5.97;;;1.00;99.90;;;;;;5033633;28;20218;-77
2022/02/02 02:23:38;;;;;;;13.47;7.03;;;0.00;99.90;;;;;;5033452;28;20658;-77
2022/02/02 02:26:06;;;;;;;9.40;5.53;;;0.60;99.90;;;;;;5032015;28;20188;-77
2022/02/02 02:31:50;;;;;;;11.63;5.50;;;0.70;99.90;;;;;;5033358;28;20206;-77
2022/02/02 02:39:30;;;;;;;9.30;5.10;;;2.20;99.90;;;;;;5032119;28;20724;-77
2022/02/02 03:50:19;;;;;;;5.80;4.00;;;1.00;99.90;;;;;;5036217;28;20540;-79
2022/02/02 03:53:07;;;;;;;10.00;4.23;;;0.50;99.90;;;;;;5035619;28;20199;-78
2022/02/02 03:57:58;;;;;;;5.47;3.77;;;;;;;;;;5036401;28;20192;-78
2022/02/02 04:06:03;;;;;;;4.20;3.23;;;2.00;99.90;;;;;;5033528;28;20331;-79
2022/02/02 04:08:31;;;;;;;5.77;3.00;;;1.90;99.90;;;;;;5019338;28;20199;-78
2022/02/02 04:10:59;;;;;;;4.93;3.13;;;0.40;99.90;;;;;;5034651;28;20245;-78
2022/02/02 05:06:35;;;;;;;13.40;9.60;;;0.60;99.90;;;;;;5029100;28;20192;-80
2022/02/02 05:17:21;;;;;;;5.70;4.23;;;0.60;99.90;;;;;;5041199;28;20652;-78
2022/02/02 05:20:17;;;;;;;5.53;4.23;;;;;;;;;;5038257;28;20574;-79
2022/02/02 05:53:39;;;;;;;7.60;4.03;;;1.20;99.90;;;;;;5039068;28;20288;-80
2022/02/02 05:56:06;;;;;;;12.40;5.90;;;1.20;99.90;;;;;;5038156;28;20180;-79
2022/02/02 05:58:37;;;;;;;8.77;5.23;;;1.20;99.90;;;;;;5047659;28;20172;-80
2022/02/02 06:01:04;;;;;;;8.93;6.10;;;2.20;99.90;;;;;;5041502;28;20582;-79
2022/02/02 06:03:45;;;;;;;9.40;5.77;;;3.30;99.90;;;;;;5040820;28;20180;-81
2022/02/02 06:06:12;;;;;;;8.20;5.30;;;1.30;99.90;;;;;;5030269;28;20184;-81
2022/02/02 06:08:42;;;;;;;11.30;6.23;;;1.30;99.90;;;;;;5033541;28;20177;-80
2022/02/02 06:11:11;;;;;;;8.17;5.40;;;2.30;99.90;;;;;;5033327;28;20176;-83
2022/02/02 06:13:49;;;;;;;8.57;5.23;;;2.00;99.90;;;;;;5029380;28;20206;-80
2022/02/02 06:16:16;;;;;;;12.83;6.63;;;2.50;99.90;;;;;;5032433;28;20180;-81
2022/02/02 06:18:56;;;;;;;14.47;6.73;;;1.40;99.90;;;;;;5043303;28;20184;-81
2022/02/02 06:21:27;;;;;;;11.30;5.73;;;1.70;99.90;;;;;;5052514;28;20629;-78
2022/02/02 06:24:07;;;;;;;11.43;6.57;;;1.50;99.90;;;;;;5053339;28;20186;-79
2022/02/02 06:26:35;;;;;;;10.53;5.03;;;1.40;99.90;;;;;;5051988;28;20557;-80
2022/02/02 06:29:05;;;;;;;10.40;6.40;;;1.60;99.90;;;;;;5035949;28;20266;-79
2022/02/02 06:31:35;;;;;;;8.57;5.10;;;1.50;99.90;;;;;;5056370;28;20180;-79
2022/02/02 06:34:03;;;;;;;8.03;5.43;;;2.10;99.90;;;;;;5051283;28;20177;-81
2022/02/02 06:36:30;;;;;;;8.47;5.93;;;1.60;99.90;;;;;;5045363;28;20310;-79
2022/02/02 06:38:57;;;;;;;9.63;6.50;;;1.60;99.90;;;;;;5050689;28;20176;-78
2022/02/02 06:41:28;;;;;;;10.03;5.83;;;2.80;99.90;;;;;;5054837;28;20187;-79
2022/02/02 06:43:55;;;;;;;6.70;4.37;;;1.40;99.90;;;;;;5050145;28;20190;-79
2022/02/02 06:46:30;;;;;;;12.50;6.07;;;1.50;99.90;;;;;;5033182;28;20181;-78
2022/02/02 06:48:56;;;;;;;13.90;6.30;;;3.30;99.90;;;;;;5032699;28;20649;-78
2022/02/02 06:51:37;;;;;;;11.33;6.83;;;1.60;99.90;;;;;;5034034;28;20565;-78
2022/02/02 06:54:10;;;;;;;10.57;5.60;;;1.60;99.90;;;;;;5033905;28;20207;-78
2022/02/02 06:56:48;;;;;;;14.13;8.43;;;1.30;99.90;;;;;;5034249;28;20223;-77
2022/02/02 06:59:48;;;;;;;15.00;8.30;;;2.20;99.90;;;;;;5033836;28;20165;-78
2022/02/02 07:13:37;;;;;;;6.53;4.97;;;1.60;99.90;;;;;;5037852;28;20175;-79
2022/02/02 07:31:33;;;;;;;14.33;6.90;;;1.70;99.90;;;;;;5040521;28;20195;-79
2022/02/02 07:34:28;;;;;;;13.00;6.27;;;1.70;99.90;;;;;;5046270;28;20191;-79
2022/02/02 07:36:59;;;;;;;14.47;7.50;;;1.80;99.90;;;;;;5037589;28;20165;-79
2022/02/02 07:39:26;;;;;;;9.13;4.07;;;1.70;99.90;;;;;;5037642;28;20224;-79
2022/02/02 07:41:58;;;;;;;6.73;4.17;;;1.70;99.90;;;;;;5036430;28;20184;-79
2022/02/02 07:44:27;;;;;;;12.60;6.27;;;1.80;99.90;;;;;;5036241;28;20184;-79
2022/02/02 07:46:56;;;;;;;16.03;5.77;;;1.60;99.90;;;;;;5038603;28;20661;-79
2022/02/02 07:49:33;;;;;;;10.57;6.70;;;1.80;99.90;;;;;;5039655;28;20204;-79
2022/02/02 07:51:59;;;;;;;7.63;4.53;;;1.80;99.90;;;;;;5028119;28;20175;-78
2022/02/02 07:54:37;;;;;;;11.63;6.70;;;1.80;99.90;;;;;;5037645;28;20189;-79
2022/02/02 07:57:12;;;;;;;12.43;6.00;;;2.20;99.90;;;;;;5040427;28;20254;-79
2022/02/02 08:00:00;;;;;;;7.93;4.57;;;1.70;99.90;;;;;;5037437;28;20206;-80
2022/02/02 08:02:45;;;;;;;12.23;5.70;;;1.70;99.90;;;;;;5036940;28;20184;-79
2022/02/02 08:05:13;;;;;;;17.83;5.37;;;1.70;99.90;;;;;;5029974;28;20630;-81
2022/02/02 08:07:57;;;;;;;12.23;6.20;;;1.70;99.90;;;;;;5038387;28;20181;-78
2022/02/02 08:10:25;;;;;;;15.07;6.33;;;1.70;99.90;;;;;;5036865;28;20193;-79
2022/02/02 08:12:57;;;;;;;13.03;6.87;;;1.70;99.90;;;;;;5038154;28;20177;-78
2022/02/02 08:15:26;;;;;;;9.17;4.30;;;1.70;99.90;;;;;;5036321;28;20227;-79
2022/02/02 08:17:54;;;;;;;10.13;5.30;;;;;;;;;;5038167;28;20180;-79
2022/02/02 08:20:21;;;;;;;13.13;6.50;;;1.80;99.90;;;;;;5036450;28;20661;-78
2022/02/02 08:22:47;;;;;;;8.60;5.73;;;1.80;99.90;;;;;;5036599;28;20177;-80
2022/02/02 08:25:24;;;;;;;12.10;6.17;;;1.90;99.90;;;;;;5036542;28;20235;-80
2022/02/02 08:27:50;;;;;;;8.23;5.03;;;1.90;99.90;;;;;;5035556;28;20685;-79
2022/02/02 08:30:16;;;;;;;14.13;5.73;;;1.90;99.90;;;;;;5037007;28;20184;-80
2022/02/02 08:32:47;;;;;;;8.90;5.27;;;3.20;99.90;;;;;;5036087;28;20241;-79
2022/02/02 08:35:14;;;;;;;13.93;6.40;;;2.00;99.90;;;;;;5037982;28;20161;-80
2022/02/02 08:37:44;;;;;;;14.53;5.70;;;2.00;99.90;;;;;;5035417;28;20192;-80
2022/02/02 08:40:25;;;;;;;12.50;6.17;;;2.10;99.90;;;;;;5036687;28;20217;-78
2022/02/02 08:42:51;;;;;;;9.97;6.07;;;;;;;;;;5034690;28;20548;-79
2022/02/02 08:45:25;;;;;;;11.17;6.30;;;;;;;;;;5036484;28;20176;-79
2022/02/02 08:47:58;;;;;;;9.70;5.03;;;2.10;99.90;;;;;;5037053;28;20165;-78
2022/02/02 08:51:09;;;;;;;10.30;5.40;;;2.10;99.90;;;;;;5035407;28;20196;-79
2022/02/02 08:56:09;;;;;;;15.60;7.17;;;2.20;99.90;;;;;;5049297;28;20177;-77
2022/02/02 09:01:06;;;;;;;8.63;5.43;;;2.20;99.90;;;;;;5043150;28;20212;-78
2022/02/02 09:06:16;;;;;;;10.90;5.87;;;;;;;;;;5035047;28;20183;-79
2022/02/02 09:08:45;;;;;;;12.50;6.20;;;2.20;99.90;;;;;;5034264;28;20185;-80
2022/02/02 09:35:39;;;;;;;8.47;5.43;;;2.40;99.90;;;;;;5011295;28;20193;-79
2022/02/02 09:38:04;;;;;;;9.47;4.80;;;2.40;99.90;;;;;;5052991;28;20187;-80
2022/02/02 09:43:18;;;;;;;7.80;5.40;;;2.40;99.90;;;;;;5056284;28;20193;-81
2022/02/02 09:45:45;;;;;;;7.27;4.37;;;2.50;99.90;;;;;;5056332;28;20164;-80
2022/02/02 09:48:24;;;;;;;12.80;6.43;;;2.40;99.90;;;;;;5055595;28;20174;-78
2022/02/02 09:50:55;;;;;;;9.37;5.63;;;2.50;99.90;;;;;;5051518;28;20188;-79
2022/02/02 09:53:34;;;;;;;11.23;6.00;;;2.40;99.90;;;;;;5053939;28;20227;-79
2022/02/02 09:56:20;;;;;;;9.63;6.00;;;2.40;99.90;;;;;;5041968;28;20195;-79
2022/02/02 10:15:33;;;;;;;9.60;5.90;;;2.40;99.90;;;;;;5034082;28;20172;-79
2022/02/02 10:18:13;;;;;;;17.60;7.37;;;2.50;99.90;;;;;;5049438;28;20184;-79
2022/02/02 10:20:40;;;;;;;14.53;6.97;;;2.50;99.90;;;;;;5033667;28;20200;-79
2022/02/02 10:23:06;;;;;;;6.83;4.33;;;2.80;99.90;;;;;;5034053;28;20176;-79
2022/02/02 10:25:43;;;;;;;11.93;5.60;;;2.50;99.90;;;;;;5033875;28;20175;-79
2022/02/02 10:28:15;;;;;;;15.93;6.73;;;2.50;99.90;;;;;;5034579;28;20251;-79
2022/02/02 10:30:44;;;;;;;9.20;6.00;;;2.60;99.90;;;;;;5033344;28;20181;-80
2022/02/02 10:33:30;;;;;;;12.80;7.13;;;3.00;99.90;;;;;;5032508;28;20185;-79
2022/02/02 10:36:08;;;;;;;12.17;6.17;;;2.70;99.90;;;;;;5033856;28;20291;-79
2022/02/02 10:38:50;;;;;;;13.90;6.77;;;2.70;99.90;;;;;;5032532;28;20184;-80
2022/02/02 10:41:32;;;;;;;10.00;4.73;;;2.70;99.90;;;;;;5033750;28;20193;-80
2022/02/02 10:44:03;;;;;;;11.23;5.50;;;2.70;99.90;;;;;;5033467;28;20223;-79
2022/02/02 10:46:40;;;;;;;6.77;3.93;;;2.80;99.90;;;;;;5033685;28;20165;-79
2022/02/02 10:49:15;;;;;;;13.83;6.27;;;4.00;99.90;;;;;;5034424;28;20172;-79
2022/02/02 10:51:50;;;;;;;14.63;5.83;;;2.80;99.90;;;;;;5033355;28;20168;-80
2022/02/02 10:54:31;;;;;;;9.20;5.10;;;2.80;99.90;;;;;;5033568;28;20690;-79
2022/02/02 11:07:47;;;;;;;11.37;5.60;;;3.00;99.90;;;;;;5034863;28;20199;-80
2022/02/02 11:10:13;;;;;;;13.20;5.23;;;3.00;99.90;;;;;;5033980;28;20185;-80
2022/02/02 11:12:41;;;;;;;9.77;5.13;;;3.00;99.90;;;;;;5033189;28;20222;-80
2022/02/02 11:15:14;;;;;;;12.20;6.53;;;3.00;99.90;;;;;;5034080;28;20188;-80
2022/02/02 11:18:22;;;;;;;10.37;6.00;;;3.00;99.90;;;;;;5035270;28;20174;-80
2022/02/02 11:20:48;;;;;;;9.80;5.13;;;3.10;99.90;;;;;;5010153;28;20231;-80
2022/02/02 11:23:14;;;;;;;10.97;5.37;;;3.00;99.90;;;;;;5034316;28;20180;-81
2022/02/02 11:25:54;;;;;;;11.07;5.50;;;3.10;99.90;;;;;;5032328;28;20182;-80
2022/02/02 11:28:27;;;;;;;8.47;4.70;;;3.00;99.90;;;;;;5028735;28;20240;-80
2022/02/02 11:31:17;;;;;;;5.13;3.50;;;3.00;99.90;;;;;;5034016;28;20181;-80
2022/02/02 11:33:46;;;;;;;8.63;5.17;;;3.10;99.90;;;;;;5032991;28;20219;-81
2022/02/02 11:36:34;;;;;;;11.10;4.50;;;3.20;99.90;;;;;;5033910;28;20192;-79
2022/02/02 11:39:04;;;;;;;9.80;4.73;;;3.20;99.90;;;;;;5023978;28;20182;-80
2022/02/02 11:49:50;;;;;;;12.63;5.90;;;3.40;99.90;;;;;;5033230;28;20206;-80
2022/02/02 11:52:37;;;;;;;12.70;6.47;;;3.40;99.90;;;;;;5018181;28;20609;-80
2022/02/02 11:55:10;;;;;;;10.67;5.10;;;3.50;99.90;;;;;;5032868;28;20176;-80
2022/02/02 11:57:53;;;;;;;10.20;5.30;;;3.50;99.90;;;;;;5032015;28;20184;-80
2022/02/02 12:00:31;;;;;;;10.03;4.43;;;3.50;99.90;;;;;;5033132;28;20208;-80
2022/02/02 12:03:37;;;;;;;8.77;4.07;;;4.10;99.90;;;;;;5016560;28;20188;-82
2022/02/02 12:56:59;;;;;;;8.43;4.23;;;3.40;99.90;;;;;;5071158;28;20221;-80
2022/02/02 13:02:19;;;;;;;7.37;4.67;;;3.30;99.90;;;;;;5041191;28;20203;-80
2022/02/02 13:04:53;;;;;;;8.33;5.27;;;3.10;99.90;;;;;;5061008;28;20164;-85
2022/02/02 13:07:20;;;;;;;8.83;5.40;;;3.00;99.90;;;;;;5059676;28;20160;-86
2022/02/02 13:09:51;;;;;;;7.27;4.50;;;3.00;99.90;;;;;;5059086;28;20250;-85
2022/02/02 13:15:32;;;;;;;8.57;5.13;;;3.00;99.90;;;;;;5028378;28;20658;-82
2022/02/02 13:23:48;;;;;;;10.20;5.27;;;2.80;99.90;;;;;;5035845;28;20223;-81
2022/02/02 13:26:42;;;;;;;12.73;6.23;;;2.80;99.90;;;;;;5036970;28;20661;-80
2022/02/02 13:29:17;;;;;;;11.10;6.43;;;2.80;99.90;;;;;;5032098;28;20228;-81
2022/02/02 13:31:53;;;;;;;9.53;6.27;;;2.80;99.90;;;;;;5042654;28;20576;-79
2022/02/02 14:33:22;;;;;;;9.10;5.97;;;2.10;99.90;;;;;;5032225;28;20179;-79
2022/02/02 14:35:49;;;;;;;9.80;6.60;;;2.10;99.90;;;;;;5033373;28;20180;-80
2022/02/02 14:38:17;;;;;;;9.23;6.30;;;2.40;99.90;;;;;;5032616;28;20185;-80
2022/02/02 14:43:19;;;;;;;12.30;6.97;;;;;;;;;;5048067;28;20742;-80
2022/02/02 14:45:50;;;;;;;14.70;6.17;;;2.00;99.90;;;;;;5049636;28;20706;-80
2022/02/02 14:48:26;;;;;;;11.07;6.83;;;;;;;;;;5052687;28;20283;-80
2022/02/02 14:51:01;;;;;;;11.40;6.97;;;;;;;;;;5038381;28;20219;-80
2022/02/02 14:53:39;;;;;;;10.40;6.70;;;1.80;99.90;;;;;;5013017;28;20227;-80
2022/02/02 15:32:55;;;;;;;21.17;14.37;;;1.40;99.90;;;;;;5050854;28;20183;-81
2022/02/02 15:35:31;;;;;;;19.37;12.27;;;1.20;99.90;;;;;;5033669;28;20173;-80
2022/02/02 15:38:08;;;;;;;22.57;14.20;;;1.20;99.90;;;;;;5050899;28;20199;-81
2022/02/02 15:40:39;;;;;;;25.00;16.10;;;3.30;99.90;;;;;;5031065;28;20211;-80
2022/02/02 15:43:24;;;;;;;22.43;14.43;;;1.10;99.90;;;;;;5036825;28;20238;-81
2022/02/02 16:00:46;;;;;;;27.90;16.77;;;2.00;99.90;;;;;;5043971;28;20206;-80
2022/02/02 16:02:20;;;;;;;22.97;13.83;;;1.00;99.90;;;;;;5032654;28;20871;-81
2022/02/02 16:04:46;;;;;;;31.50;21.40;;;2.70;99.90;;;;;;5046373;28;20178;-81
2022/02/02 16:07:21;;;;;;;27.73;17.17;;;1.10;99.90;;;;;;5045503;28;20185;-79
2022/02/02 16:09:53;;;;;;;27.50;15.33;;;1.00;99.90;;;;;;5029803;28;20188;-80
2022/02/02 16:15:13;;;;;;;28.63;18.13;;;;;;;;;;5035914;28;20596;-80
2022/02/02 16:36:26;;;;;;;29.43;17.10;;;1.20;99.90;;;;;;5015637;28;20204;-81
2022/02/02 16:39:05;;;;;;;31.03;18.53;;;;;;;;;;5032047;28;20207;-79
2022/02/02 16:44:15;;;;;;;38.23;20.87;;;1.10;99.90;;;;;;5031143;28;20207;-80
2022/02/02 16:46:41;;;;;;;56.93;25.50;;;0.90;99.90;;;;;;5031772;28;20196;-80
2022/02/02 16:49:08;;;;;;;39.60;18.03;;;1.60;99.90;;;;;;5028788;28;20536;-79
2022/02/02 16:51:34;;;;;;;42.00;20.33;;;;;;;;;;5024917;28;20290;-80
2022/02/02 16:54:02;;;;;;;27.13;15.77;;;0.90;99.90;;;;;;5028068;28;20185;-80
2022/02/02 17:40:00;;;;;;;35.30;18.50;;;;;;;;;;5032963;28;20203;-82
2022/02/02 18:18:44;;;;;;;29.00;14.70;;;2.70;99.90;;;;;;5017901;28;20251;-82
2022/02/02 18:20:55;;;;;;;35.80;19.23;;;2.00;99.90;;;;;;5032050;28;20227;-80
2022/02/02 18:23:30;;;;;;;37.20;17.77;;;1.20;99.90;;;;;;5028366;28;20188;-81
2022/02/02 18:28:52;;;;;;;28.63;14.23;;;1.20;99.90;;;;;;5022862;28;20239;-81
2022/02/02 18:57:57;;;;;;;37.17;18.93;;;1.20;99.90;;;;;;5038319;28;20180;-82
2022/02/02 20:09:58;;;;;;;43.90;20.13;;;;;;;;;;5043745;28;20256;-80
2022/02/02 20:12:28;;;;;;;33.43;17.00;;;;;;;;;;5035363;28;20180;-80
2022/02/02 20:14:54;;;;;;;38.90;22.20;;;1.30;99.90;;;;;;5038624;28;20177;-80
2022/02/02 20:17:22;;;;;;;38.17;20.43;;;1.70;99.90;;;;;;5044536;28;20698;-80
2022/02/02 20:19:54;;;;;;;31.47;17.23;;;1.40;99.90;;;;;;5034833;28;20173;-80
2022/02/02 20:22:23;;;;;;;37.57;19.07;;;1.50;99.90;;;;;;5041041;28;20188;-79
2022/02/02 20:25:01;;;;;;;29.03;16.57;;;;;;;;;;5044742;28;20172;-79
2022/02/02 20:27:30;;;;;;;34.57;20.13;;;1.30;99.90;;;;;;5041021;28;20223;-79
2022/02/02 20:29:56;;;;;;;28.80;16.37;;;;;;;;;;5040103;28;20223;-79
2022/02/02 20:32:22;;;;;;;36.57;20.20;;;1.20;99.90;;;;;;5044124;28;20180;-79
2022/02/02 20:34:47;;;;;;;34.23;18.87;;;1.30;99.90;;;;;;5045876;28;20184;-79
2022/02/02 20:37:16;;;;;;;29.47;18.03;;;1.30;99.90;;;;;;5035343;28;20191;-79
2022/02/02 20:39:52;;;;;;;31.20;18.30;;;1.30;99.90;;;;;;5035596;28;20185;-78
2022/02/02 20:42:26;;;;;;;31.97;17.27;;;1.50;99.90;;;;;;5034393;28;20184;-79
2022/02/02 21:04:40;;;;;;;29.40;17.10;;;2.40;99.90;;;;;;5035254;28;20184;-79
2022/02/02 21:06:58;;;;;;;28.80;15.57;;;2.50;99.90;;;;;;5010658;28;20189;-78
2022/02/02 21:09:47;;;;;;;27.80;15.97;;;1.30;99.90;;;;;;5034015;28;20650;-78
2022/02/02 21:14:58;;;;;;;29.77;17.03;;;1.80;99.90;;;;;;5041436;28;20212;-81
2022/02/02 21:17:26;;;;;;;36.23;20.20;;;1.50;99.90;;;;;;5039612;28;20633;-78
2022/02/02 21:22:19;;;;;;;28.10;16.50;;;1.50;99.90;;;;;;5033603;28;20279;-78
2022/02/02 21:24:52;;;;;;;28.07;16.57;;;1.10;99.90;;;;;;5034451;28;20674;-79
2022/02/02 21:29:44;;;;;;;29.90;17.13;;;;;;;;;;5034319;28;20196;-79
2022/02/02 21:32:10;;;;;;;29.47;15.63;;;1.00;99.90;;;;;;5032918;28;20195;-79
2022/02/02 21:34:37;;;;;;;35.03;17.87;;;0.90;99.90;;;;;;5032193;28;20178;-79
2022/02/02 21:37:05;;;;;;;32.63;17.37;;;1.20;99.90;;;;;;5035374;28;20655;-79
2022/02/02 21:39:34;;;;;;;25.83;14.33;;;;;;;;;;5034727;28;20226;-78
2022/02/02 21:41:59;;;;;;;31.53;17.43;;;1.00;99.90;;;;;;5033001;28;21126;-78
2022/02/02 21:44:25;;;;;;;28.17;16.50;;;3.10;99.90;;;;;;5016445;28;20208;-78
2022/02/02 21:46:53;;;;;;;27.80;15.47;;;2.40;99.90;;;;;;5034172;28;20200;-79
2022/02/02 21:49:21;;;;;;;27.03;14.97;;;1.00;99.90;;;;;;5034170;28;20553;-79
2022/02/02 21:52:09;;;;;;;29.97;16.57;;;0.90;99.90;;;;;;5032848;28;20203;-78
2022/02/02 21:54:38;;;;;;;27.17;15.63;;;2.90;99.90;;;;;;5019324;28;20181;-78
2022/02/02 21:57:05;;;;;;;29.37;15.07;;;0.90;99.90;;;;;;5033659;28;20177;-78
2022/02/02 21:59:31;;;;;;;27.23;13.90;;;0.80;99.90;;;;;;5033922;28;20176;-79
2022/02/02 22:01:57;;;;;;;23.37;13.87;;;1.60;99.90;;;;;;5033476;28;20219;-78
2022/02/02 22:04:23;;;;;;;26.53;13.70;;;0.90;99.90;;;;;;5034018;28;20180;-78
2022/02/02 22:06:48;;;;;;;28.13;14.73;;;1.50;99.90;;;;;;5032508;28;20267;-78
2022/02/02 22:09:14;;;;;;;25.83;15.60;;;3.00;99.90;;;;;;5034008;28;20188;-78
2022/02/02 22:11:40;;;;;;;28.57;16.53;;;2.60;99.90;;;;;;5033426;28;20183;-79
2022/02/02 22:14:19;;;;;;;34.80;18.80;;;0.90;99.90;;;;;;5032092;28;20183;-78
2022/02/02 22:16:47;;;;;;;34.47;19.83;;;0.70;99.90;;;;;;5032455;28;20192;-80
2022/02/02 22:19:13;;;;;;;23.10;13.87;;;2.20;99.90;;;;;;5033731;28;20178;-78
2022/02/02 22:21:38;;;;;;;20.87;13.90;;;0.20;99.90;;;;;;5032314;28;20216;-78
2022/02/02 22:24:04;;;;;;;22.83;11.73;;;0.30;99.90;;;;;;5031876;28;20181;-78
2022/02/02 22:26:30;;;;;;;40.53;20.23;;;0.50;99.90;;;;;;5033478;28;20174;-78
2022/02/02 22:28:56;;;;;;;25.40;14.57;;;0.50;99.90;;;;;;5033090;28;20581;-78
2022/02/02 22:31:22;;;;;;;35.17;18.67;;;2.40;99.90;;;;;;5033704;28;20172;-78
2022/02/02 22:33:48;;;;;;;31.63;17.23;;;0.50;99.90;;;;;;5032876;28;20180;-79
2022/02/02 22:36:14;;;;;;;37.33;23.53;;;2.00;99.90;;;;;;5033218;28;20687;-78
2022/02/02 22:38:43;;;;;;;28.37;15.53;;;2.40;99.90;;;;;;5033201;28;20208;-78
2022/02/02 22:41:10;;;;;;;38.97;20.10;;;0.40;99.90;;;;;;5032892;28;20247;-78
2022/02/02 22:43:43;;;;;;;28.83;15.27;;;0.30;99.90;;;;;;5033350;28;20264;-78
2022/02/02 22:46:09;;;;;;;36.10;18.30;;;0.40;99.90;;;;;;5031589;28;20187;-78
2022/02/02 22:48:36;;;;;;;33.97;17.00;;;0.40;99.90;;;;;;5033123;28;20259;-78
2022/02/02 22:51:02;;;;;;;32.70;19.23;;;;;;;;;;5015450;28;20180;-78
2022/02/02 22:53:28;;;;;;;29.27;14.63;;;0.40;99.90;;;;;;5032425;28;20644;-78
2022/02/02 22:55:54;;;;;;;36.20;18.40;;;0.40;99.90;;;;;;5031744;28;20183;-78
2022/02/02 22:58:20;;;;;;;35.10;19.73;;;2.20;99.90;;;;;;5033217;28;20635;-78
2022/02/02 23:00:47;;;;;;;34.90;20.57;;;0.80;99.90;;;;;;5015115;28;20636;-78
2022/02/02 23:03:16;;;;;;;35.00;19.63;;;0.30;99.90;;;;;;5031507;28;20537;-79
2022/02/02 23:05:46;;;;;;;27.13;16.73;;;0.30;99.90;;;;;;5031608;28;20178;-78
2022/02/02 23:08:15;;;;;;;17.87;10.13;;;0.10;99.90;;;;;;5032629;28;20207;-78
2022/02/02 23:10:42;;;;;;;31.47;17.73;;;0.10;99.90;;;;;;5031657;28;20272;-78
2022/02/02 23:13:10;;;;;;;31.80;17.63;;;0.10;99.90;;;;;;5032621;28;20176;-79
2022/02/02 23:15:53;;;;;;;35.57;17.50;;;0.10;99.90;;;;;;5032764;28;20184;-78
2022/02/02 23:18:25;;;;;;;30.30;14.50;;;0.40;99.90;;;;;;5031601;28;20613;-78
2022/02/02 23:20:56;;;;;;;36.30;19.20;;;0.30;99.90;;;;;;5032691;28;20193;-83
2022/02/02 23:23:25;;;;;;;38.33;18.37;;;0.20;99.90;;;;;;5031793;28;20183;-78
2022/02/02 23:25:53;;;;;;;35.43;18.93;;;0.20;99.90;;;;;;5032721;28;20176;-82
2022/02/02 23:28:24;;;;;;;33.83;19.93;;;0.20;99.90;;;;;;5031342;28;20257;-78
2022/02/02 23:30:50;;;;;;;29.67;16.37;;;0.20;99.90;;;;;;5033128;28;20226;-78
2022/02/02 23:33:16;;;;;;;33.73;17.17;;;0.20;99.90;;;;;;5014767;28;20186;-78
2022/02/02 23:35:43;;;;;;;28.63;16.00;;;0.20;99.90;;;;;;5032777;28;20184;-79
2022/02/02 23:38:10;;;;;;;28.37;15.87;;;0.30;99.90;;;;;;5032632;28;20176;-79
2022/02/02 23:43:23;;;;;;;29.93;16.17;;;0.30;99.90;;;;;;5032940;28;20277;-78
2022/02/02 23:45:56;;;;;;;24.57;14.20;;;0.60;99.90;;;;;;5031397;28;20639;-78
2022/02/02 23:48:24;;;;;;;26.33;14.47;;;0.30;99.90;;;;;;5032847;28;20177;-79
2022/02/02 23:50:53;;;;;;;22.93;12.10;;;0.30;99.90;;;;;;5032581;28;20262;-78
2022/02/02 23:53:22;;;;;;;19.17;12.73;;;0.40;99.90;;;;;;5032804;28;20187;-79
2022/02/02 23:55:59;;;;;;;18.97;8.53;;;0.20;99.90;;;;;;5031244;28;20545;-78
2022/02/02 23:58:38;;;;;;;11.80;8.03;;;0.10;99.90;;;;;;5032529;28;20153;-78
